Time;durP1;ratioP1;P1;durP2;ratioP2;P2;SDS_P1;SDS_P2;PMS_P1;PMS_P2;Temp;Humidity;BMP_temperature;BMP_pressure;BME280_temperature;BME280_humidity;BME280_pressure;Samples;Min_cycle;Max_cycle;Signal;HPM_P1;HPM_P2
2021/03/09 00:00:40;;;;;;;12.52;7.63;;;5.00;80.30;;;;;;2081057;28;20525;-83
2021/03/09 00:01:40;;;;;;;13.65;8.00;;;5.00;80.40;;;;;;2081984;28;20063;-83
2021/03/09 00:02:43;;;;;;;12.98;7.68;;;5.00;80.50;;;;;;2072747;28;20033;-82
2021/03/09 00:03:43;;;;;;;14.15;8.27;;;5.00;80.50;;;;;;2073176;28;20365;-83
2021/03/09 00:04:44;;;;;;;14.90;8.38;;;5.00;80.60;;;;;;2080981;28;20064;-82
2021/03/09 00:05:44;;;;;;;13.25;7.93;;;5.00;80.60;;;;;;2065218;28;20529;-83
2021/03/09 00:06:45;;;;;;;13.65;8.13;;;5.00;80.70;;;;;;2065214;28;20122;-82
2021/03/09 00:07:46;;;;;;;14.43;7.40;;;5.00;80.70;;;;;;2064938;28;20030;-82
2021/03/09 00:08:46;;;;;;;14.57;8.13;;;5.00;80.80;;;;;;2062262;28;20479;-82
2021/03/09 00:09:47;;;;;;;12.68;7.68;;;5.00;80.80;;;;;;2071704;28;20026;-82
2021/03/09 00:10:47;;;;;;;12.02;7.32;;;5.00;80.90;;;;;;2057271;28;20027;-82
2021/03/09 00:11:48;;;;;;;13.45;7.68;;;5.00;81.50;;;;;;2065385;28;20394;-82
2021/03/09 00:12:49;;;;;;;15.75;8.85;;;4.90;80.90;;;;;;2072732;28;20069;-83
2021/03/09 00:13:49;;;;;;;15.25;8.57;;;5.00;81.10;;;;;;2072974;28;20050;-83
2021/03/09 00:14:50;;;;;;;13.98;7.85;;;5.00;81.10;;;;;;2073026;28;20165;-82
2021/03/09 00:15:50;;;;;;;13.65;8.27;;;4.90;81.70;;;;;;2070105;28;20026;-83
2021/03/09 00:16:51;;;;;;;13.20;7.57;;;4.90;81.10;;;;;;2072158;28;20053;-83
2021/03/09 00:17:52;;;;;;;12.60;8.00;;;4.90;81.20;;;;;;2065108;28;20089;-82
2021/03/09 00:18:52;;;;;;;13.55;8.07;;;4.90;81.30;;;;;;2068327;28;20504;-82
2021/03/09 00:19:53;;;;;;;13.02;7.88;;;4.90;81.30;;;;;;2072946;28;20030;-82
2021/03/09 00:20:53;;;;;;;13.32;7.50;;;4.80;81.30;;;;;;2072687;28;20052;-82
2021/03/09 00:21:54;;;;;;;13.02;7.65;;;4.90;81.40;;;;;;2073012;28;20065;-82
2021/03/09 00:22:55;;;;;;;12.18;6.90;;;4.80;81.40;;;;;;2072748;28;20080;-83
2021/03/09 00:23:55;;;;;;;13.18;7.22;;;4.80;81.40;;;;;;2071709;28;20365;-82
2021/03/09 00:24:56;;;;;;;14.20;7.60;;;4.80;81.50;;;;;;2064871;28;20539;-82
2021/03/09 00:25:56;;;;;;;12.38;7.40;;;4.80;81.60;;;;;;2084017;28;20060;-82
2021/03/09 00:26:57;;;;;;;12.15;7.43;;;4.80;81.60;;;;;;2064735;28;20416;-82
2021/03/09 00:27:58;;;;;;;12.15;7.20;;;4.80;82.30;;;;;;2063360;28;20031;-82
2021/03/09 00:28:58;;;;;;;12.50;7.50;;;4.80;81.80;;;;;;2062954;28;20031;-82
2021/03/09 00:29:59;;;;;;;12.70;7.65;;;4.80;81.90;;;;;;2064969;28;20034;-83
2021/03/09 00:31:00;;;;;;;13.93;7.97;;;4.80;81.90;;;;;;2083215;28;20515;-83
2021/03/09 00:32:00;;;;;;;12.10;7.80;;;4.70;81.90;;;;;;2072630;28;20084;-82
2021/03/09 00:33:01;;;;;;;12.90;7.75;;;4.70;81.90;;;;;;2066420;28;20527;-82
2021/03/09 00:34:02;;;;;;;13.10;7.57;;;4.80;82.00;;;;;;2072750;28;20037;-82
2021/03/09 00:35:03;;;;;;;11.70;7.10;;;4.80;82.00;;;;;;2064676;28;20018;-83
2021/03/09 00:36:04;;;;;;;12.30;7.53;;;4.80;82.00;;;;;;2073186;28;20026;-82
2021/03/09 00:37:05;;;;;;;13.48;7.50;;;4.80;82.00;;;;;;2081121;28;20101;-83
2021/03/09 00:38:05;;;;;;;11.73;7.10;;;4.80;82.10;;;;;;2073244;28;20037;-82
2021/03/09 00:39:06;;;;;;;12.18;6.55;;;4.70;82.10;;;;;;2077818;28;20022;-82
2021/03/09 00:40:07;;;;;;;11.95;6.80;;;4.70;82.10;;;;;;2072926;28;20022;-82
2021/03/09 00:41:08;;;;;;;12.13;6.60;;;4.70;82.20;;;;;;2064427;28;20031;-82
2021/03/09 00:42:09;;;;;;;11.45;6.75;;;4.70;82.10;;;;;;2064338;28;20039;-82
2021/03/09 00:43:09;;;;;;;11.82;6.93;;;4.70;82.20;;;;;;2072300;28;20025;-82
2021/03/09 00:44:10;;;;;;;10.95;6.30;;;4.70;82.20;;;;;;2081263;28;20060;-82
2021/03/09 00:45:11;;;;;;;12.40;6.90;;;4.70;82.20;;;;;;2080904;28;20510;-83
2021/03/09 00:46:12;;;;;;;11.32;6.95;;;4.70;82.30;;;;;;2069623;28;20034;-82
2021/03/09 00:47:12;;;;;;;11.43;6.47;;;4.70;82.30;;;;;;2066820;28;20026;-82
2021/03/09 00:48:13;;;;;;;12.93;6.70;;;4.70;82.30;;;;;;2063264;28;20022;-82
2021/03/09 00:49:14;;;;;;;12.35;7.15;;;4.70;82.40;;;;;;2056337;28;20038;-82
2021/03/09 00:50:15;;;;;;;13.02;6.85;;;4.70;82.40;;;;;;2059765;28;20031;-82
2021/03/09 00:51:15;;;;;;;11.50;6.63;;;4.70;82.50;;;;;;2072638;28;20025;-82
2021/03/09 00:52:16;;;;;;;11.27;7.22;;;4.70;82.50;;;;;;2064474;28;20042;-82
2021/03/09 00:53:17;;;;;;;13.23;6.55;;;4.70;82.50;;;;;;2065075;28;20445;-82
2021/03/09 00:54:18;;;;;;;11.98;6.95;;;4.70;82.50;;;;;;2064358;28;20045;-82
2021/03/09 00:55:18;;;;;;;13.02;6.95;;;4.70;82.60;;;;;;2064388;28;20121;-82
2021/03/09 00:56:19;;;;;;;14.05;7.32;;;4.70;82.60;;;;;;2072568;28;20053;-82
2021/03/09 00:57:20;;;;;;;15.80;8.50;;;4.70;82.60;;;;;;2063501;28;20057;-82
2021/03/09 00:58:20;;;;;;;12.38;7.60;;;4.70;82.70;;;;;;2063740;28;20045;-82
2021/03/09 00:59:21;;;;;;;12.70;7.22;;;4.70;82.70;;;;;;2064558;28;20030;-83
2021/03/09 01:00:22;;;;;;;15.18;8.40;;;4.70;82.70;;;;;;2063117;28;20056;-83
2021/03/09 01:01:23;;;;;;;14.43;8.95;;;4.70;82.80;;;;;;2072129;28;20129;-82
2021/03/09 01:02:23;;;;;;;15.05;8.60;;;4.70;83.40;;;;;;2072261;28;20080;-83
2021/03/09 01:03:24;;;;;;;17.80;9.32;;;4.70;82.90;;;;;;2078909;28;20029;-82
2021/03/09 01:04:25;;;;;;;16.92;9.05;;;4.70;82.90;;;;;;2074962;28;20030;-82
2021/03/09 01:05:26;;;;;;;15.80;9.05;;;4.70;83.00;;;;;;2064490;28;20527;-83
2021/03/09 01:06:26;;;;;;;15.48;9.10;;;4.70;83.00;;;;;;2072650;28;20181;-82
2021/03/09 01:07:27;;;;;;;15.88;9.10;;;4.70;83.10;;;;;;2072554;28;20121;-82
2021/03/09 01:08:27;;;;;;;15.38;8.95;;;4.60;83.10;;;;;;2062491;28;20039;-82
2021/03/09 01:09:28;;;;;;;14.82;8.55;;;4.60;83.70;;;;;;2052626;28;20031;-82
2021/03/09 01:10:29;;;;;;;17.08;9.45;;;4.60;83.10;;;;;;2061234;28;20531;-82
2021/03/09 01:11:29;;;;;;;16.23;9.32;;;4.60;83.10;;;;;;2072423;28;20026;-82
2021/03/09 01:12:30;;;;;;;16.80;9.70;;;4.60;83.20;;;;;;2080784;28;20036;-82
2021/03/09 01:13:30;;;;;;;18.27;9.95;;;4.60;83.30;;;;;;2079819;28;20053;-82
2021/03/09 01:14:31;;;;;;;16.98;9.52;;;4.60;83.30;;;;;;2072414;28;20030;-82
2021/03/09 01:15:32;;;;;;;17.45;9.25;;;4.60;83.40;;;;;;2067081;28;20388;-82
2021/03/09 01:16:33;;;;;;;13.35;8.63;;;4.60;83.40;;;;;;2071333;28;20029;-82
2021/03/09 01:17:34;;;;;;;16.63;9.15;;;4.60;83.40;;;;;;2079456;28;20029;-82
2021/03/09 01:18:35;;;;;;;15.25;9.00;;;4.60;83.50;;;;;;2072278;28;20030;-83
2021/03/09 01:19:35;;;;;;;15.07;8.60;;;4.60;83.50;;;;;;2063691;28;20493;-82
2021/03/09 01:20:36;;;;;;;16.13;8.88;;;4.60;83.60;;;;;;2079593;28;20041;-82
2021/03/09 01:21:36;;;;;;;16.85;9.68;;;4.60;83.60;;;;;;2077925;28;20438;-83
2021/03/09 01:22:37;;;;;;;17.50;10.45;;;4.60;83.70;;;;;;2056269;28;20063;-83
2021/03/09 01:23:38;;;;;;;15.77;9.68;;;4.60;83.70;;;;;;2056323;28;20027;-82
2021/03/09 01:24:38;;;;;;;16.95;9.90;;;4.60;83.80;;;;;;2069309;28;20034;-83
2021/03/09 01:25:39;;;;;;;16.95;10.07;;;4.50;83.80;;;;;;2072612;28;20077;-82
2021/03/09 01:26:40;;;;;;;16.25;9.88;;;4.60;83.90;;;;;;2063592;28;20488;-82
2021/03/09 01:27:40;;;;;;;16.15;9.75;;;4.50;83.90;;;;;;2057342;28;20043;-82
2021/03/09 01:28:41;;;;;;;16.92;9.98;;;4.60;84.00;;;;;;2064160;28;20388;-82
2021/03/09 01:29:42;;;;;;;17.20;9.25;;;4.60;84.10;;;;;;2072162;28;20524;-83
2021/03/09 01:30:42;;;;;;;16.58;9.73;;;4.60;84.10;;;;;;2079205;28;20018;-82
2021/03/09 01:31:43;;;;;;;17.95;10.15;;;4.60;84.20;;;;;;2081315;28;20041;-82
2021/03/09 01:32:44;;;;;;;17.05;10.30;;;4.60;84.20;;;;;;2075947;28;20413;-82
2021/03/09 01:33:44;;;;;;;20.42;11.15;;;4.60;84.80;;;;;;2071828;28;20407;-82
2021/03/09 01:34:46;;;;;;;17.88;9.95;;;4.60;84.30;;;;;;2071709;28;20129;-83
2021/03/09 01:35:47;;;;;;;17.27;10.52;;;4.50;84.30;;;;;;2072990;28;20379;-82
2021/03/09 01:36:48;;;;;;;15.77;9.90;;;4.50;84.30;;;;;;2065030;28;20032;-82
2021/03/09 01:37:48;;;;;;;16.50;10.13;;;4.60;84.40;;;;;;2056743;28;20121;-82
2021/03/09 01:38:49;;;;;;;18.58;10.93;;;4.50;84.40;;;;;;2072495;28;20396;-83
2021/03/09 01:39:50;;;;;;;17.40;10.40;;;4.50;84.50;;;;;;2071014;28;20041;-82
2021/03/09 01:40:50;;;;;;;21.42;12.07;;;4.50;84.50;;;;;;2056216;28;20057;-82
2021/03/09 01:41:51;;;;;;;21.25;11.23;;;4.50;84.60;;;;;;2069874;28;20459;-82
2021/03/09 01:42:52;;;;;;;17.35;10.63;;;4.50;84.60;;;;;;2073278;28;20099;-82
2021/03/09 01:43:53;;;;;;;21.95;11.68;;;4.50;84.70;;;;;;2072511;28;20590;-82
2021/03/09 01:44:53;;;;;;;20.42;12.23;;;4.50;84.80;;;;;;2059667;28;20023;-82
2021/03/09 01:45:54;;;;;;;18.98;10.70;;;4.50;84.80;;;;;;2064263;28;20022;-82
2021/03/09 01:46:59;;;;;;;18.15;10.85;;;4.50;84.90;;;;;;2072296;28;20472;-82
2021/03/09 01:48:03;;;;;;;18.60;10.95;;;4.50;84.90;;;;;;2070731;28;20041;-82
2021/03/09 01:49:03;;;;;;;20.77;11.45;;;4.50;85.00;;;;;;2071997;28;20026;-82
2021/03/09 01:50:05;;;;;;;21.70;11.55;;;4.50;85.00;;;;;;2081295;28;20496;-82
2021/03/09 01:51:05;;;;;;;18.35;11.25;;;4.50;85.00;;;;;;2075555;28;20030;-82
2021/03/09 01:52:09;;;;;;;19.20;11.43;;;4.40;85.00;;;;;;2072237;28;20141;-83
2021/03/09 01:53:10;;;;;;;20.35;11.93;;;4.40;85.00;;;;;;2073004;28;20506;-82
2021/03/09 01:54:12;;;;;;;20.17;12.32;;;4.40;85.00;;;;;;2080472;28;20014;-82
2021/03/09 01:55:14;;;;;;;21.05;12.25;;;4.40;85.10;;;;;;2075500;28;20033;-82
2021/03/09 01:56:15;;;;;;;21.75;12.48;;;4.40;85.10;;;;;;2080129;28;20496;-83
2021/03/09 01:57:15;;;;;;;20.92;12.07;;;4.40;85.20;;;;;;2072510;28;20042;-83
2021/03/09 01:58:18;;;;;;;21.00;12.05;;;4.40;85.20;;;;;;2063143;28;20153;-82
2021/03/09 01:59:21;;;;;;;23.80;12.85;;;4.40;85.20;;;;;;2072102;28;20033;-82
2021/03/09 02:00:21;;;;;;;21.92;12.65;;;4.40;85.30;;;;;;2084028;28;20048;-82
2021/03/09 02:01:22;;;;;;;21.50;12.90;;;4.40;85.40;;;;;;2073184;28;20033;-83
2021/03/09 02:02:23;;;;;;;22.83;13.60;;;4.40;85.40;;;;;;2072386;28;20076;-83
2021/03/09 02:03:23;;;;;;;20.95;12.80;;;4.40;85.40;;;;;;2077219;28;20046;-81
2021/03/09 02:04:24;;;;;;;25.02;13.88;;;4.40;85.50;;;;;;2072152;28;20438;-81
2021/03/09 02:05:25;;;;;;;21.48;13.13;;;4.40;85.60;;;;;;2071419;28;20038;-80
2021/03/09 02:06:26;;;;;;;24.63;14.00;;;4.40;85.50;;;;;;2072468;28;20026;-81
2021/03/09 02:07:26;;;;;;;22.45;12.98;;;4.40;85.70;;;;;;2072177;28;20038;-81
2021/03/09 02:08:27;;;;;;;22.35;13.50;;;4.40;85.60;;;;;;2079682;28;20080;-80
2021/03/09 02:09:29;;;;;;;22.75;13.18;;;4.40;85.60;;;;;;2083663;28;20029;-80
2021/03/09 02:10:30;;;;;;;19.90;12.52;;;4.40;85.70;;;;;;2057692;28;20023;-81
2021/03/09 02:11:57;;;;;;;22.40;13.20;;;4.40;85.70;;;;;;2049761;28;20027;-80
2021/03/09 02:13:27;;;;;;;23.73;13.20;;;4.40;85.70;;;;;;2069547;28;20516;-81
2021/03/09 02:14:52;;;;;;;24.88;14.10;;;4.40;85.70;;;;;;2053062;28;20035;-80
2021/03/09 02:16:01;;;;;;;25.15;13.98;;;4.40;85.60;;;;;;2040751;28;20028;-80
2021/03/09 02:17:19;;;;;;;23.48;12.68;;;4.40;85.60;;;;;;2058781;28;20019;-80
2021/03/09 02:18:48;;;;;;;21.27;12.77;;;4.40;85.60;;;;;;2068481;28;20034;-80
2021/03/09 02:20:16;;;;;;;23.77;13.13;;;4.30;85.60;;;;;;2054753;28;20404;-80
2021/03/09 02:21:38;;;;;;;25.40;14.25;;;4.30;85.70;;;;;;2073873;28;20484;-79
2021/03/09 02:23:26;;;;;;;25.40;14.43;;;4.30;85.70;;;;;;2077052;28;20450;-80
2021/03/09 02:24:44;;;;;;;22.90;12.30;;;4.30;85.70;;;;;;2070891;28;20038;-80
2021/03/09 02:26:15;;;;;;;21.85;12.85;;;4.30;85.60;;;;;;2081266;28;20071;-80
2021/03/09 02:27:30;;;;;;;25.33;13.70;;;4.30;85.60;;;;;;2072941;28;20058;-81
2021/03/09 02:28:37;;;;;;;22.50;12.90;;;4.30;85.60;;;;;;2068102;28;20370;-80
2021/03/09 02:30:10;;;;;;;21.33;12.73;;;4.30;85.60;;;;;;2073037;28;20054;-80
2021/03/09 02:31:11;;;;;;;21.55;12.43;;;4.30;85.60;;;;;;2086673;28;20539;-80
2021/03/09 02:32:24;;;;;;;22.05;12.70;;;4.30;85.60;;;;;;2081679;28;20131;-80
2021/03/09 02:33:39;;;;;;;23.02;13.32;;;4.30;85.80;;;;;;2067952;28;20056;-80
2021/03/09 02:34:53;;;;;;;21.58;12.43;;;4.30;85.90;;;;;;2079197;28;20025;-80
2021/03/09 02:35:59;;;;;;;22.35;12.95;;;4.30;85.90;;;;;;2081773;28;20025;-80
2021/03/09 02:37:06;;;;;;;22.17;13.60;;;4.30;85.90;;;;;;2081576;28;20021;-80
2021/03/09 02:38:08;;;;;;;22.80;13.18;;;4.30;86.00;;;;;;2073398;28;20026;-80
2021/03/09 02:39:12;;;;;;;22.30;12.52;;;4.30;86.00;;;;;;2064731;28;20038;-80
2021/03/09 02:40:15;;;;;;;21.20;11.95;;;4.30;86.10;;;;;;2066183;28;20030;-80
2021/03/09 02:41:19;;;;;;;22.65;13.60;;;4.30;86.10;;;;;;2082377;28;20032;-80
2021/03/09 02:42:28;;;;;;;21.65;13.05;;;4.30;86.20;;;;;;2077979;28;20026;-80
2021/03/09 02:43:29;;;;;;;23.38;13.32;;;4.30;86.20;;;;;;2074246;28;20065;-79
2021/03/09 02:44:31;;;;;;;23.33;12.57;;;4.30;86.20;;;;;;2064615;28;20034;-78
2021/03/09 02:45:32;;;;;;;23.08;13.07;;;4.30;86.30;;;;;;2065539;28;20026;-80
2021/03/09 02:46:35;;;;;;;23.55;13.65;;;4.30;86.30;;;;;;2076582;28;20031;-80
2021/03/09 02:47:36;;;;;;;23.52;13.90;;;4.40;86.40;;;;;;2072722;28;20026;-80
2021/03/09 02:48:38;;;;;;;21.33;13.20;;;4.40;86.50;;;;;;2073090;28;20128;-80
2021/03/09 02:49:42;;;;;;;23.77;13.95;;;4.40;86.50;;;;;;2088219;28;20021;-80
2021/03/09 02:50:47;;;;;;;23.27;13.57;;;4.40;86.50;;;;;;2082093;28;20049;-80
2021/03/09 02:51:49;;;;;;;22.13;13.13;;;4.40;86.60;;;;;;2082222;28;20448;-80
2021/03/09 02:52:57;;;;;;;27.38;14.50;;;4.40;86.60;;;;;;2081981;28;20152;-80
2021/03/09 02:54:01;;;;;;;23.50;13.40;;;4.40;86.60;;;;;;2081378;28;20469;-81
2021/03/09 02:55:04;;;;;;;23.27;13.38;;;4.40;86.60;;;;;;2081943;28;20053;-80
2021/03/09 02:56:07;;;;;;;21.88;13.48;;;4.40;86.70;;;;;;2081614;28;20025;-81
2021/03/09 02:57:10;;;;;;;25.48;13.93;;;4.40;86.70;;;;;;2073557;28;20566;-81
2021/03/09 02:58:17;;;;;;;24.20;14.23;;;4.40;86.70;;;;;;2060139;28;20409;-81
2021/03/09 02:59:20;;;;;;;25.27;13.55;;;4.40;86.80;;;;;;2070090;28;20125;-80
2021/03/09 03:00:22;;;;;;;22.38;13.75;;;4.40;86.80;;;;;;2076531;28;20030;-80
2021/03/09 03:01:29;;;;;;;22.50;13.23;;;4.40;86.80;;;;;;2077491;28;20029;-80
2021/03/09 03:02:34;;;;;;;23.90;13.65;;;4.40;86.80;;;;;;2073375;28;20103;-80
2021/03/09 03:03:35;;;;;;;21.83;13.38;;;4.40;86.80;;;;;;2071485;28;20085;-81
2021/03/09 03:04:36;;;;;;;23.35;13.90;;;4.40;86.80;;;;;;2072933;28;20139;-80
2021/03/09 03:05:38;;;;;;;24.77;15.00;;;4.40;86.80;;;;;;2073460;28;20068;-82
2021/03/09 03:06:39;;;;;;;24.75;14.50;;;4.50;86.90;;;;;;2073478;28;20077;-80
2021/03/09 03:07:41;;;;;;;26.23;15.07;;;4.40;86.90;;;;;;2079901;28;20041;-81
2021/03/09 03:08:44;;;;;;;26.75;15.75;;;4.40;87.00;;;;;;2073203;28;20080;-81
2021/03/09 03:09:46;;;;;;;23.63;13.90;;;4.40;87.00;;;;;;2082210;28;20021;-81
2021/03/09 03:10:47;;;;;;;24.83;14.65;;;4.50;87.20;;;;;;2072568;28;20443;-81
2021/03/09 03:11:49;;;;;;;27.15;15.27;;;4.40;87.10;;;;;;2065301;28;20026;-81
2021/03/09 03:12:50;;;;;;;24.50;14.98;;;4.40;87.10;;;;;;2073649;28;20417;-80
2021/03/09 03:13:53;;;;;;;25.00;15.07;;;4.40;87.20;;;;;;2081624;28;20554;-81
2021/03/09 03:14:54;;;;;;;25.60;15.05;;;4.40;87.20;;;;;;2065424;28;20105;-81
2021/03/09 03:15:55;;;;;;;28.92;16.02;;;4.40;87.20;;;;;;2065085;28;20382;-81
2021/03/09 03:16:57;;;;;;;25.67;15.00;;;4.40;87.30;;;;;;2065214;28;20481;-80
2021/03/09 03:17:59;;;;;;;25.95;15.23;;;4.40;87.30;;;;;;2064826;28;20033;-81
2021/03/09 03:19:02;;;;;;;25.45;15.15;;;4.40;87.30;;;;;;2066698;28;20030;-80
2021/03/09 03:20:06;;;;;;;23.80;14.70;;;4.40;87.40;;;;;;2064933;28;20019;-80
2021/03/09 03:21:12;;;;;;;24.95;14.45;;;4.40;87.30;;;;;;2071722;28;20515;-80
2021/03/09 03:22:16;;;;;;;26.95;15.05;;;4.50;87.40;;;;;;2073308;28;20396;-80
2021/03/09 03:23:18;;;;;;;25.13;15.10;;;4.50;87.40;;;;;;2074492;28;20025;-81
2021/03/09 03:24:20;;;;;;;27.33;15.55;;;4.40;87.30;;;;;;2072285;28;20075;-80
2021/03/09 03:25:21;;;;;;;27.23;15.60;;;4.50;87.40;;;;;;2065429;28;20036;-80
2021/03/09 03:26:24;;;;;;;28.65;16.50;;;4.50;87.50;;;;;;2072944;28;20448;-80
2021/03/09 03:27:25;;;;;;;25.48;15.85;;;4.50;88.00;;;;;;2080967;28;20033;-80
2021/03/09 03:28:26;;;;;;;25.27;15.25;;;4.50;87.40;;;;;;2072712;28;20037;-80
2021/03/09 03:29:27;;;;;;;31.10;17.73;;;4.50;87.50;;;;;;2064574;28;20518;-80
2021/03/09 03:30:28;;;;;;;30.00;17.10;;;4.40;87.40;;;;;;2056586;28;20468;-80
2021/03/09 03:31:30;;;;;;;29.30;16.77;;;4.50;87.50;;;;;;2064990;28;20061;-80
2021/03/09 03:32:32;;;;;;;28.33;16.88;;;4.50;87.60;;;;;;2073192;28;20030;-80
2021/03/09 03:33:33;;;;;;;29.83;17.90;;;4.40;87.50;;;;;;2072742;28;20454;-80
2021/03/09 03:34:34;;;;;;;29.33;18.00;;;4.50;87.60;;;;;;2056321;28;20027;-80
2021/03/09 03:35:35;;;;;;;28.95;16.17;;;4.50;87.60;;;;;;2063850;28;20026;-81
2021/03/09 03:36:37;;;;;;;26.45;16.15;;;4.50;87.70;;;;;;2073117;28;20082;-81
2021/03/09 03:37:42;;;;;;;32.53;18.73;;;4.50;87.70;;;;;;2073282;28;20022;-80
2021/03/09 03:38:42;;;;;;;31.15;18.52;;;4.40;88.30;;;;;;2073534;28;20026;-80
2021/03/09 03:39:43;;;;;;;28.90;17.65;;;4.40;87.70;;;;;;2081163;28;20045;-80
2021/03/09 03:40:44;;;;;;;27.60;16.77;;;4.50;87.80;;;;;;2089884;28;20045;-80
2021/03/09 03:41:46;;;;;;;29.70;16.88;;;4.50;87.80;;;;;;2066746;28;20024;-80
2021/03/09 03:42:48;;;;;;;28.33;17.15;;;4.40;87.80;;;;;;2056904;28;20039;-80
2021/03/09 03:43:49;;;;;;;26.83;16.52;;;4.50;88.40;;;;;;2057095;28;20030;-80
2021/03/09 03:44:49;;;;;;;28.10;17.05;;;4.50;87.80;;;;;;2056587;28;20505;-80
2021/03/09 03:45:50;;;;;;;28.88;16.52;;;4.50;87.80;;;;;;2057090;28;20030;-80
2021/03/09 03:46:51;;;;;;;27.98;16.42;;;4.50;87.80;;;;;;2072863;28;20177;-80
2021/03/09 03:47:57;;;;;;;28.92;17.73;;;4.50;87.80;;;;;;2074944;28;20037;-80
2021/03/09 03:48:58;;;;;;;28.08;17.05;;;4.50;87.90;;;;;;2065638;28;20027;-80
2021/03/09 03:49:59;;;;;;;29.20;16.92;;;4.50;87.80;;;;;;2056172;28;20034;-80
2021/03/09 03:51:00;;;;;;;26.42;15.48;;;4.50;87.80;;;;;;2056906;28;20106;-80
2021/03/09 03:52:35;;;;;;;26.17;16.77;;;4.50;87.80;;;;;;2072838;28;20030;-80
2021/03/09 03:54:16;;;;;;;27.25;16.48;;;4.50;87.90;;;;;;2080510;28;20507;-80
2021/03/09 03:55:25;;;;;;;;;;;4.50;87.70;;;;;;2081779;28;20037;-80
2021/03/09 03:56:33;;;;;;;25.42;15.27;;;4.50;87.60;;;;;;2088244;28;19909;-80
2021/03/09 03:57:43;;;;;;;29.95;16.27;;;4.50;87.50;;;;;;2081156;28;20043;-82
2021/03/09 03:58:50;;;;;;;23.60;14.95;;;4.50;87.50;;;;;;2072015;28;20025;-82
2021/03/09 03:59:56;;;;;;;27.13;15.88;;;4.50;87.50;;;;;;2082160;28;20029;-82
2021/03/09 04:00:58;;;;;;;29.45;17.30;;;4.50;87.50;;;;;;2081633;28;20053;-82
2021/03/09 04:02:09;;;;;;;26.80;16.23;;;4.50;87.60;;;;;;2082915;28;20451;-82
2021/03/09 04:03:13;;;;;;;29.15;17.42;;;4.50;87.70;;;;;;2072353;28;20396;-82
2021/03/09 04:04:14;;;;;;;29.90;17.63;;;4.50;87.70;;;;;;2065350;28;20054;-82
2021/03/09 04:05:20;;;;;;;35.30;20.38;;;4.50;87.80;;;;;;2072050;28;20033;-82
2021/03/09 04:06:27;;;;;;;33.47;19.95;;;4.50;88.00;;;;;;2081331;28;20444;-82
2021/03/09 04:07:27;;;;;;;28.70;17.60;;;4.50;87.90;;;;;;2081579;28;20862;-82
2021/03/09 04:08:29;;;;;;;32.42;19.05;;;4.50;87.90;;;;;;2086904;28;20073;-82
2021/03/09 04:09:31;;;;;;;30.30;18.35;;;4.50;88.00;;;;;;2081687;28;20382;-82
2021/03/09 04:10:32;;;;;;;27.83;17.42;;;4.50;88.00;;;;;;2072695;28;20026;-82
2021/03/09 04:11:34;;;;;;;31.17;19.00;;;4.50;88.00;;;;;;2072946;28;20025;-82
2021/03/09 04:12:36;;;;;;;28.52;17.98;;;4.50;88.10;;;;;;2072206;28;20093;-82
2021/03/09 04:13:40;;;;;;;32.47;19.38;;;4.50;88.10;;;;;;2067914;28;20030;-82
2021/03/09 04:14:41;;;;;;;34.45;19.77;;;4.50;88.10;;;;;;2072933;28;20026;-82
2021/03/09 04:15:43;;;;;;;31.30;18.98;;;4.50;88.20;;;;;;2076240;28;20112;-82
2021/03/09 04:16:47;;;;;;;32.53;19.08;;;4.50;88.20;;;;;;2064864;28;20119;-83
2021/03/09 04:17:50;;;;;;;31.25;18.77;;;4.50;88.20;;;;;;2073319;28;20120;-83
2021/03/09 04:18:53;;;;;;;32.13;19.42;;;4.50;88.30;;;;;;2080430;28;20569;-83
2021/03/09 04:19:55;;;;;;;32.50;19.70;;;4.50;88.30;;;;;;2071057;28;20030;-82
2021/03/09 04:20:58;;;;;;;31.00;19.13;;;4.50;88.30;;;;;;2064685;28;20034;-83
2021/03/09 04:22:00;;;;;;;30.40;18.67;;;4.50;88.40;;;;;;2064984;28;20104;-83
2021/03/09 04:23:03;;;;;;;34.20;20.48;;;4.50;88.40;;;;;;2072974;28;20508;-83
2021/03/09 04:24:05;;;;;;;32.65;19.55;;;4.60;88.50;;;;;;2073208;28;20109;-82
2021/03/09 04:25:08;;;;;;;32.65;20.25;;;4.60;88.40;;;;;;2071664;28;20044;-82
2021/03/09 04:26:09;;;;;;;33.20;19.67;;;4.50;88.40;;;;;;2072595;28;20062;-83
2021/03/09 04:27:20;;;;;;;32.20;19.58;;;4.50;88.40;;;;;;2072355;28;20048;-83
2021/03/09 04:28:22;;;;;;;31.08;19.77;;;4.60;88.50;;;;;;2074621;28;20112;-82
2021/03/09 04:29:23;;;;;;;32.97;19.27;;;4.50;88.50;;;;;;2081287;28;20056;-83
2021/03/09 04:30:24;;;;;;;31.73;19.08;;;4.50;88.50;;;;;;2077302;28;20503;-82
2021/03/09 04:31:26;;;;;;;32.13;18.90;;;4.50;88.50;;;;;;2073005;28;20427;-83
2021/03/09 04:32:27;;;;;;;31.05;19.63;;;4.50;88.60;;;;;;2078968;28;20049;-83
2021/03/09 04:33:29;;;;;;;32.33;19.50;;;4.60;88.60;;;;;;2080668;28;20049;-83
2021/03/09 04:34:29;;;;;;;29.67;18.65;;;4.50;88.60;;;;;;2088531;28;20025;-83
2021/03/09 04:35:30;;;;;;;29.38;18.77;;;4.60;88.60;;;;;;2082231;28;20037;-82
2021/03/09 04:36:33;;;;;;;34.35;21.35;;;4.60;88.60;;;;;;2066212;28;20073;-83
2021/03/09 04:37:35;;;;;;;31.13;19.30;;;4.60;88.60;;;;;;2068418;28;20120;-82
2021/03/09 04:38:36;;;;;;;30.45;18.30;;;4.60;88.70;;;;;;2076608;28;20064;-83
2021/03/09 04:39:38;;;;;;;30.83;18.30;;;4.60;88.60;;;;;;2073108;28;20029;-83
2021/03/09 04:40:40;;;;;;;31.80;19.08;;;4.60;88.70;;;;;;2078868;28;20151;-82
2021/03/09 04:41:41;;;;;;;33.47;19.73;;;4.60;88.70;;;;;;2057078;28;20030;-83
2021/03/09 04:42:42;;;;;;;32.17;20.00;;;4.60;88.70;;;;;;2065188;28;20041;-82
2021/03/09 04:43:43;;;;;;;29.35;18.40;;;4.60;88.80;;;;;;2079022;28;20515;-83
2021/03/09 04:44:43;;;;;;;32.55;19.48;;;4.60;88.70;;;;;;2082453;28;20032;-83
2021/03/09 04:45:44;;;;;;;32.85;19.95;;;4.60;88.70;;;;;;2072296;28;20022;-83
2021/03/09 04:46:45;;;;;;;33.92;20.25;;;4.60;88.80;;;;;;2072463;28;20496;-83
2021/03/09 04:47:47;;;;;;;31.67;19.73;;;4.60;88.80;;;;;;2081674;28;20144;-83
2021/03/09 04:48:48;;;;;;;31.30;18.52;;;4.60;88.80;;;;;;2064604;28;20022;-83
2021/03/09 04:49:54;;;;;;;33.95;19.83;;;4.60;88.80;;;;;;2063884;28;20137;-83
2021/03/09 04:51:05;;;;;;;32.10;19.33;;;4.60;88.80;;;;;;2074033;28;20018;-84
2021/03/09 04:52:06;;;;;;;31.67;18.98;;;4.60;88.80;;;;;;2080727;28;20025;-82
2021/03/09 04:53:07;;;;;;;31.88;19.58;;;4.60;88.80;;;;;;2081541;28;20480;-82
2021/03/09 04:54:07;;;;;;;33.17;20.10;;;4.60;88.80;;;;;;2077610;28;20033;-82
2021/03/09 04:55:11;;;;;;;37.42;22.35;;;4.60;88.80;;;;;;2063425;28;20462;-82
2021/03/09 04:56:11;;;;;;;34.75;21.70;;;4.60;88.90;;;;;;2073499;28;20034;-81
2021/03/09 04:57:12;;;;;;;33.05;21.60;;;4.60;88.90;;;;;;2073183;28;20026;-81
2021/03/09 04:58:13;;;;;;;34.13;20.65;;;4.60;89.00;;;;;;2071309;28;20072;-81
2021/03/09 04:59:13;;;;;;;35.33;21.20;;;4.60;89.00;;;;;;2073352;28;20021;-82
2021/03/09 05:00:16;;;;;;;33.40;19.88;;;4.60;89.00;;;;;;2072300;28;20065;-80
2021/03/09 05:01:17;;;;;;;30.85;19.60;;;4.60;89.00;;;;;;2076216;28;20030;-82
2021/03/09 05:02:18;;;;;;;31.17;20.33;;;4.60;89.00;;;;;;2072482;28;20065;-82
2021/03/09 05:03:19;;;;;;;36.88;22.52;;;4.60;89.00;;;;;;2072208;28;20033;-81
2021/03/09 05:04:19;;;;;;;34.35;21.38;;;4.60;89.00;;;;;;2072262;28;20108;-82
2021/03/09 05:05:23;;;;;;;32.70;20.40;;;4.60;89.00;;;;;;2079180;28;20040;-82
2021/03/09 05:06:23;;;;;;;33.85;20.92;;;4.60;89.00;;;;;;2080226;28;20026;-82
2021/03/09 05:07:24;;;;;;;33.40;21.05;;;4.60;89.10;;;;;;2079701;28;20083;-82
2021/03/09 05:08:25;;;;;;;32.22;21.33;;;4.60;89.10;;;;;;2080853;28;20472;-82
2021/03/09 05:09:25;;;;;;;33.08;20.45;;;4.60;89.20;;;;;;2076093;28;20021;-82
2021/03/09 05:10:26;;;;;;;33.53;21.48;;;4.60;89.20;;;;;;2076009;28;20087;-82
2021/03/09 05:11:30;;;;;;;33.92;21.38;;;4.70;89.20;;;;;;2072656;28;20030;-82
2021/03/09 05:12:31;;;;;;;32.70;20.85;;;4.60;89.20;;;;;;2073518;28;20040;-82
2021/03/09 05:13:32;;;;;;;34.28;21.15;;;4.60;89.20;;;;;;2074383;28;20033;-82
2021/03/09 05:14:32;;;;;;;35.58;21.35;;;4.70;89.90;;;;;;2064425;28;20133;-79
2021/03/09 05:15:33;;;;;;;34.85;21.80;;;4.70;89.30;;;;;;2063275;28;20018;-82
2021/03/09 05:16:34;;;;;;;35.10;22.95;;;4.70;89.30;;;;;;2064529;28;20026;-82
2021/03/09 05:17:34;;;;;;;36.75;22.88;;;4.70;89.90;;;;;;2071827;28;20028;-82
2021/03/09 05:18:35;;;;;;;35.65;22.88;;;4.70;89.30;;;;;;2071582;28;20034;-82
2021/03/09 05:19:36;;;;;;;34.80;22.85;;;4.60;89.30;;;;;;2075393;28;20053;-82
2021/03/09 05:20:37;;;;;;;36.60;22.48;;;4.70;89.40;;;;;;2067732;28;20140;-82
2021/03/09 05:21:38;;;;;;;36.17;22.00;;;4.70;89.40;;;;;;2064260;28;20092;-82
2021/03/09 05:22:39;;;;;;;36.85;22.48;;;4.70;89.40;;;;;;2056418;28;20027;-82
2021/03/09 05:23:39;;;;;;;34.60;21.40;;;4.70;89.40;;;;;;2068839;28;20113;-82
2021/03/09 05:24:40;;;;;;;36.92;22.80;;;4.70;89.40;;;;;;2074143;28;20487;-82
2021/03/09 05:25:40;;;;;;;38.03;23.20;;;4.70;89.40;;;;;;2079682;28;20141;-82